Погода Тимбирасна неделю

Мараньян, Бразилия

20 - 26 июня
  • 20июня
    Сегодня
    +24°
    +33°
    Ясно и безоблачно
    ВремяПогодаТемператураВлажностьДавлениеВетер, м/сВероятность осадков
    00:00Ясно и безоблачно+25°C79 %754 мм1.4 м/с5 %
    03:00Ясно и безоблачно+24°C85 %753 мм1.3 м/с5 %
    06:00Ясно и безоблачно+23°C87 %754 мм2.5 м/с5 %
    09:00Ясно и безоблачно+29°C63 %755 мм3.4 м/с5 %
    12:00Ясно и безоблачно+31°C51 %755 мм4.0 м/с3 %
    15:00Ясно и безоблачно+33°C44 %753 мм3.2 м/с7 %
    18:00Небольшая облачность+29°C67 %753 мм2.5 м/с3 %
    21:00Небольшая облачность+28°C72 %754 мм2.0 м/с5 %
  • 21июня
    Пятница
    +23°
    +33°
    Практически безоблачно
    ВремяПогодаТемператураВлажностьДавлениеВетер, м/сВероятность осадков
    00:00Практически безоблачно+26°C75 %754 мм1.7 м/с2 %
    03:00Облачно с прояснениями+25°C79 %753 мм1.9 м/с2 %
    06:00Ясно и безоблачно+25°C83 %753 мм2.2 м/с6 %
    09:00Практически безоблачно+28°C63 %755 мм3.5 м/с7 %
    12:00Практически безоблачно+32°C49 %754 мм4.7 м/с9 %
    15:00Практически безоблачно+32°C46 %752 мм3.5 м/с6 %
    18:00Облачно с прояснениями+29°C61 %753 мм2.8 м/с5 %
    21:00Небольшая облачность+27°C66 %754 мм1.8 м/с5 %
  • 22июня
    Суббота
    +23°
    +32°
    Практически безоблачно
    ВремяПогодаТемператураВлажностьДавлениеВетер, м/сВероятность осадков
    00:00Ясно и безоблачно+27°C71 %754 мм2.3 м/с5 %
    03:00Ясно и безоблачно+25°C76 %754 мм2.7 м/с14 %
    06:00Ясно и безоблачно+24°C77 %754 мм2.6 м/с8 %
    09:00Небольшая облачность+28°C63 %756 мм2.8 м/с6 %
    12:00Небольшая облачность+31°C48 %755 мм4.7 м/с5 %
    15:00Практически безоблачно+32°C45 %753 мм2.7 м/с3 %
    18:00Ясно и безоблачно+29°C65 %753 мм2.0 м/с5 %
    21:00Ясно и безоблачно+28°C74 %754 мм2.0 м/с5 %
  • 23июня
    Воскресенье
    +23°
    +33°
    Облачно с прояснениями
    ВремяПогодаТемператураВлажностьДавлениеВетер, м/сВероятность осадков
    00:00Практически безоблачно+26°C76 %754 мм1.4 м/с18 %
    03:00Ясно и безоблачно+24°C82 %753 мм2.1 м/с22 %
    06:00Ясно и безоблачно+24°C86 %754 мм1.6 м/с15 %
    09:00Небольшая облачность+29°C61 %756 мм2.8 м/с28 %
    12:00Облачно с прояснениями+31°C46 %755 мм4.1 м/с36 %
    15:00Облачно с прояснениями+32°C44 %753 мм3.7 м/с13 %
    18:00Небольшая облачность+29°C64 %753 мм2.5 м/с7 %
    21:00Практически безоблачно+28°C62 %754 мм2.6 м/с5 %
Мы используем cookies
Соглашаюсь